sensor_id;sensor_type;location;lat;lon;timestamp;P1;durP1;ratioP1;P2;durP2;ratioP2
22711;SDS011;11523;50.390;8.072;2023-12-22T00:00:01;3.42;;;1.17;;
22711;SDS011;11523;50.390;8.072;2023-12-22T00:02:27;3.47;;;1.00;;
22711;SDS011;11523;50.390;8.072;2023-12-22T00:04:53;3.38;;;1.00;;
22711;SDS011;11523;50.390;8.072;2023-12-22T00:07:19;3.55;;;1.02;;
22711;SDS011;11523;50.390;8.072;2023-12-22T00:09:45;2.05;;;0.77;;
22711;SDS011;11523;50.390;8.072;2023-12-22T00:12:11;2.58;;;0.88;;
22711;SDS011;11523;50.390;8.072;2023-12-22T00:14:37;2.35;;;1.00;;
22711;SDS011;11523;50.390;8.072;2023-12-22T00:17:05;0.63;;;0.40;;
22711;SDS011;11523;50.390;8.072;2023-12-22T00:19:31;1.70;;;0.90;;
22711;SDS011;11523;50.390;8.072;2023-12-22T00:21:57;1.98;;;0.80;;
22711;SDS011;11523;50.390;8.072;2023-12-22T00:24:23;4.13;;;0.80;;
22711;SDS011;11523;50.390;8.072;2023-12-22T00:26:49;3.30;;;1.00;;
22711;SDS011;11523;50.390;8.072;2023-12-22T00:29:15;1.95;;;0.55;;
22711;SDS011;11523;50.390;8.072;2023-12-22T00:31:41;4.13;;;1.17;;
22711;SDS011;11523;50.390;8.072;2023-12-22T00:34:07;5.43;;;1.20;;
22711;SDS011;11523;50.390;8.072;2023-12-22T00:36:33;1.98;;;0.90;;
22711;SDS011;11523;50.390;8.072;2023-12-22T00:38:59;3.38;;;0.77;;
22711;SDS011;11523;50.390;8.072;2023-12-22T00:41:25;2.10;;;0.82;;
22711;SDS011;11523;50.390;8.072;2023-12-22T00:43:50;3.55;;;1.20;;
22711;SDS011;11523;50.390;8.072;2023-12-22T00:46:16;3.72;;;1.20;;
22711;SDS011;11523;50.390;8.072;2023-12-22T00:48:42;5.10;;;1.00;;
22711;SDS011;11523;50.390;8.072;2023-12-22T00:51:08;4.07;;;0.95;;
22711;SDS011;11523;50.390;8.072;2023-12-22T00:53:34;3.97;;;1.13;;
22711;SDS011;11523;50.390;8.072;2023-12-22T00:56:00;3.60;;;0.95;;
22711;SDS011;11523;50.390;8.072;2023-12-22T00:58:34;4.38;;;0.93;;
22711;SDS011;11523;50.390;8.072;2023-12-22T01:01:00;2.17;;;0.75;;
22711;SDS011;11523;50.390;8.072;2023-12-22T01:03:26;0.73;;;0.40;;
22711;SDS011;11523;50.390;8.072;2023-12-22T01:05:52;1.98;;;0.30;;
22711;SDS011;11523;50.390;8.072;2023-12-22T01:08:18;0.52;;;0.52;;
22711;SDS011;11523;50.390;8.072;2023-12-22T01:10:45;0.28;;;0.22;;
22711;SDS011;11523;50.390;8.072;2023-12-22T01:13:11;0.93;;;0.40;;
22711;SDS011;11523;50.390;8.072;2023-12-22T01:15:37;0.82;;;0.38;;
22711;SDS011;11523;50.390;8.072;2023-12-22T01:18:03;0.82;;;0.40;;
22711;SDS011;11523;50.390;8.072;2023-12-22T01:20:30;0.93;;;0.40;;
22711;SDS011;11523;50.390;8.072;2023-12-22T01:22:55;1.77;;;0.35;;
22711;SDS011;11523;50.390;8.072;2023-12-22T01:25:21;0.30;;;0.28;;
22711;SDS011;11523;50.390;8.072;2023-12-22T01:27:48;0.70;;;0.40;;
22711;SDS011;11523;50.390;8.072;2023-12-22T01:30:17;0.10;;;0.10;;
22711;SDS011;11523;50.390;8.072;2023-12-22T01:32:43;0.75;;;0.20;;
22711;SDS011;11523;50.390;8.072;2023-12-22T01:35:09;0.13;;;0.13;;
22711;SDS011;11523;50.390;8.072;2023-12-22T01:37:36;1.20;;;0.30;;
22711;SDS011;11523;50.390;8.072;2023-12-22T01:40:02;0.20;;;0.20;;
22711;SDS011;11523;50.390;8.072;2023-12-22T01:42:35;0.85;;;0.40;;
22711;SDS011;11523;50.390;8.072;2023-12-22T01:45:01;1.20;;;0.30;;
22711;SDS011;11523;50.390;8.072;2023-12-22T01:47:27;0.30;;;0.30;;
22711;SDS011;11523;50.390;8.072;2023-12-22T01:49:53;0.57;;;0.22;;
22711;SDS011;11523;50.390;8.072;2023-12-22T01:52:19;1.20;;;0.45;;
22711;SDS011;11523;50.390;8.072;2023-12-22T01:54:44;1.25;;;0.47;;
22711;SDS011;11523;50.390;8.072;2023-12-22T01:57:12;1.00;;;0.45;;
22711;SDS011;11523;50.390;8.072;2023-12-22T01:59:39;0.68;;;0.47;;
22711;SDS011;11523;50.390;8.072;2023-12-22T02:02:05;0.60;;;0.50;;
22711;SDS011;11523;50.390;8.072;2023-12-22T02:04:31;1.23;;;0.40;;
22711;SDS011;11523;50.390;8.072;2023-12-22T02:07:01;1.05;;;0.52;;
22711;SDS011;11523;50.390;8.072;2023-12-22T02:09:27;1.60;;;0.57;;
22711;SDS011;11523;50.390;8.072;2023-12-22T02:11:53;1.23;;;0.52;;
22711;SDS011;11523;50.390;8.072;2023-12-22T02:14:19;0.80;;;0.40;;
22711;SDS011;11523;50.390;8.072;2023-12-22T02:16:51;0.77;;;0.40;;
22711;SDS011;11523;50.390;8.072;2023-12-22T02:19:29;1.33;;;0.57;;
22711;SDS011;11523;50.390;8.072;2023-12-22T02:22:08;2.03;;;0.50;;
22711;SDS011;11523;50.390;8.072;2023-12-22T02:24:34;4.63;;;0.80;;
22711;SDS011;11523;50.390;8.072;2023-12-22T02:27:04;2.85;;;0.82;;
22711;SDS011;11523;50.390;8.072;2023-12-22T02:29:37;1.45;;;0.52;;
22711;SDS011;11523;50.390;8.072;2023-12-22T02:32:06;4.40;;;1.25;;
22711;SDS011;11523;50.390;8.072;2023-12-22T02:34:33;1.88;;;0.68;;
22711;SDS011;11523;50.390;8.072;2023-12-22T02:37:01;3.95;;;0.65;;
22711;SDS011;11523;50.390;8.072;2023-12-22T02:39:28;4.68;;;0.80;;
22711;SDS011;11523;50.390;8.072;2023-12-22T02:41:54;3.20;;;0.80;;
22711;SDS011;11523;50.390;8.072;2023-12-22T02:44:20;4.50;;;1.00;;
22711;SDS011;11523;50.390;8.072;2023-12-22T02:46:46;2.15;;;0.80;;
22711;SDS011;11523;50.390;8.072;2023-12-22T02:49:12;3.38;;;0.80;;
22711;SDS011;11523;50.390;8.072;2023-12-22T02:51:38;3.10;;;0.82;;
22711;SDS011;11523;50.390;8.072;2023-12-22T02:54:04;1.40;;;0.70;;
22711;SDS011;11523;50.390;8.072;2023-12-22T02:56:30;2.17;;;0.90;;
22711;SDS011;11523;50.390;8.072;2023-12-22T02:58:56;3.33;;;0.95;;
22711;SDS011;11523;50.390;8.072;2023-12-22T03:01:22;4.88;;;1.13;;
22711;SDS011;11523;50.390;8.072;2023-12-22T03:03:48;5.57;;;1.63;;
22711;SDS011;11523;50.390;8.072;2023-12-22T03:06:14;3.90;;;1.20;;
22711;SDS011;11523;50.390;8.072;2023-12-22T03:08:40;3.22;;;1.13;;
22711;SDS011;11523;50.390;8.072;2023-12-22T03:11:05;4.32;;;1.35;;
22711;SDS011;11523;50.390;8.072;2023-12-22T03:13:31;5.47;;;1.20;;
22711;SDS011;11523;50.390;8.072;2023-12-22T03:15:57;5.10;;;1.50;;
22711;SDS011;11523;50.390;8.072;2023-12-22T03:18:23;6.95;;;1.67;;
22711;SDS011;11523;50.390;8.072;2023-12-22T03:20:49;6.47;;;1.30;;
22711;SDS011;11523;50.390;8.072;2023-12-22T03:23:15;5.18;;;1.40;;
22711;SDS011;11523;50.390;8.072;2023-12-22T03:25:41;4.85;;;1.45;;
22711;SDS011;11523;50.390;8.072;2023-12-22T03:28:07;7.07;;;1.85;;
22711;SDS011;11523;50.390;8.072;2023-12-22T03:30:33;5.38;;;2.10;;
22711;SDS011;11523;50.390;8.072;2023-12-22T03:33:00;5.63;;;1.75;;
22711;SDS011;11523;50.390;8.072;2023-12-22T03:35:26;8.13;;;2.50;;
22711;SDS011;11523;50.390;8.072;2023-12-22T03:37:52;6.35;;;1.90;;
22711;SDS011;11523;50.390;8.072;2023-12-22T03:40:18;7.30;;;1.95;;
22711;SDS011;11523;50.390;8.072;2023-12-22T03:42:44;7.32;;;1.90;;
22711;SDS011;11523;50.390;8.072;2023-12-22T03:45:10;7.07;;;2.28;;
22711;SDS011;11523;50.390;8.072;2023-12-22T03:47:36;9.63;;;2.53;;
22711;SDS011;11523;50.390;8.072;2023-12-22T03:50:02;5.38;;;1.75;;
22711;SDS011;11523;50.390;8.072;2023-12-22T03:52:28;8.25;;;1.70;;
22711;SDS011;11523;50.390;8.072;2023-12-22T03:54:54;4.13;;;1.63;;
22711;SDS011;11523;50.390;8.072;2023-12-22T03:57:19;5.90;;;1.77;;
22711;SDS011;11523;50.390;8.072;2023-12-22T03:59:45;7.63;;;1.88;;
22711;SDS011;11523;50.390;8.072;2023-12-22T04:02:11;9.07;;;1.55;;
22711;SDS011;11523;50.390;8.072;2023-12-22T04:04:38;3.05;;;1.30;;
22711;SDS011;11523;50.390;8.072;2023-12-22T04:07:04;11.85;;;2.20;;
22711;SDS011;11523;50.390;8.072;2023-12-22T04:09:29;13.63;;;2.58;;
22711;SDS011;11523;50.390;8.072;2023-12-22T04:11:55;5.03;;;1.48;;
22711;SDS011;11523;50.390;8.072;2023-12-22T04:14:21;13.38;;;2.10;;
22711;SDS011;11523;50.390;8.072;2023-12-22T04:16:47;6.55;;;1.77;;
22711;SDS011;11523;50.390;8.072;2023-12-22T04:19:13;7.28;;;1.60;;
22711;SDS011;11523;50.390;8.072;2023-12-22T04:21:39;8.45;;;2.40;;
22711;SDS011;11523;50.390;8.072;2023-12-22T04:24:05;6.60;;;1.48;;
22711;SDS011;11523;50.390;8.072;2023-12-22T04:26:31;6.90;;;1.85;;
22711;SDS011;11523;50.390;8.072;2023-12-22T04:28:57;11.82;;;2.05;;
22711;SDS011;11523;50.390;8.072;2023-12-22T04:31:23;6.80;;;2.08;;
22711;SDS011;11523;50.390;8.072;2023-12-22T04:33:49;12.90;;;2.60;;
22711;SDS011;11523;50.390;8.072;2023-12-22T04:36:15;7.78;;;1.88;;
22711;SDS011;11523;50.390;8.072;2023-12-22T04:38:41;11.80;;;2.33;;
22711;SDS011;11523;50.390;8.072;2023-12-22T04:41:07;14.73;;;2.83;;
22711;SDS011;11523;50.390;8.072;2023-12-22T04:43:33;14.73;;;3.13;;
22711;SDS011;11523;50.390;8.072;2023-12-22T04:45:59;7.18;;;2.50;;
22711;SDS011;11523;50.390;8.072;2023-12-22T04:48:25;16.60;;;3.35;;
22711;SDS011;11523;50.390;8.072;2023-12-22T04:50:51;10.10;;;2.63;;
22711;SDS011;11523;50.390;8.072;2023-12-22T04:53:16;15.20;;;2.40;;
22711;SDS011;11523;50.390;8.072;2023-12-22T04:55:43;13.65;;;3.10;;
22711;SDS011;11523;50.390;8.072;2023-12-22T04:58:09;12.55;;;2.30;;
22711;SDS011;11523;50.390;8.072;2023-12-22T05:00:35;6.10;;;2.20;;
22711;SDS011;11523;50.390;8.072;2023-12-22T05:03:00;8.50;;;1.90;;
22711;SDS011;11523;50.390;8.072;2023-12-22T05:05:26;9.48;;;2.03;;
22711;SDS011;11523;50.390;8.072;2023-12-22T05:07:52;7.72;;;1.38;;
22711;SDS011;11523;50.390;8.072;2023-12-22T05:10:18;7.93;;;2.60;;
22711;SDS011;11523;50.390;8.072;2023-12-22T05:12:44;9.93;;;1.75;;
22711;SDS011;11523;50.390;8.072;2023-12-22T05:15:10;6.10;;;1.77;;
22711;SDS011;11523;50.390;8.072;2023-12-22T05:17:36;5.97;;;1.65;;
22711;SDS011;11523;50.390;8.072;2023-12-22T05:20:02;7.57;;;1.85;;
22711;SDS011;11523;50.390;8.072;2023-12-22T05:22:28;6.10;;;2.00;;
22711;SDS011;11523;50.390;8.072;2023-12-22T05:24:57;6.25;;;1.70;;
22711;SDS011;11523;50.390;8.072;2023-12-22T05:27:23;13.35;;;2.10;;
22711;SDS011;11523;50.390;8.072;2023-12-22T05:29:49;5.72;;;1.70;;
22711;SDS011;11523;50.390;8.072;2023-12-22T05:32:15;5.90;;;1.65;;
22711;SDS011;11523;50.390;8.072;2023-12-22T05:34:41;6.50;;;1.80;;
22711;SDS011;11523;50.390;8.072;2023-12-22T05:37:07;10.40;;;1.63;;
22711;SDS011;11523;50.390;8.072;2023-12-22T05:39:33;13.57;;;2.33;;
22711;SDS011;11523;50.390;8.072;2023-12-22T05:41:59;8.35;;;2.22;;
22711;SDS011;11523;50.390;8.072;2023-12-22T05:44:25;11.77;;;1.85;;
22711;SDS011;11523;50.390;8.072;2023-12-22T05:46:54;11.45;;;2.17;;
22711;SDS011;11523;50.390;8.072;2023-12-22T05:49:20;5.32;;;1.52;;
22711;SDS011;11523;50.390;8.072;2023-12-22T05:51:46;7.82;;;1.73;;
22711;SDS011;11523;50.390;8.072;2023-12-22T05:54:12;8.45;;;1.50;;
22711;SDS011;11523;50.390;8.072;2023-12-22T05:56:38;5.47;;;1.52;;
22711;SDS011;11523;50.390;8.072;2023-12-22T05:59:05;9.35;;;1.95;;
22711;SDS011;11523;50.390;8.072;2023-12-22T06:01:31;10.23;;;2.40;;
22711;SDS011;11523;50.390;8.072;2023-12-22T06:03:57;8.60;;;2.05;;
22711;SDS011;11523;50.390;8.072;2023-12-22T06:06:23;13.57;;;1.58;;
22711;SDS011;11523;50.390;8.072;2023-12-22T06:08:55;2.35;;;1.02;;
22711;SDS011;11523;50.390;8.072;2023-12-22T06:11:28;6.07;;;2.33;;
22711;SDS011;11523;50.390;8.072;2023-12-22T06:13:53;8.38;;;2.17;;
22711;SDS011;11523;50.390;8.072;2023-12-22T06:16:19;5.30;;;1.63;;
22711;SDS011;11523;50.390;8.072;2023-12-22T06:18:45;4.25;;;1.58;;
22711;SDS011;11523;50.390;8.072;2023-12-22T06:21:11;12.15;;;2.60;;
22711;SDS011;11523;50.390;8.072;2023-12-22T06:23:37;6.03;;;1.58;;
22711;SDS011;11523;50.390;8.072;2023-12-22T06:26:10;8.27;;;1.83;;
22711;SDS011;11523;50.390;8.072;2023-12-22T06:28:36;12.57;;;2.15;;
22711;SDS011;11523;50.390;8.072;2023-12-22T06:31:03;11.55;;;2.05;;
22711;SDS011;11523;50.390;8.072;2023-12-22T06:33:30;7.45;;;2.35;;
22711;SDS011;11523;50.390;8.072;2023-12-22T06:35:56;6.57;;;2.00;;
22711;SDS011;11523;50.390;8.072;2023-12-22T06:38:21;5.00;;;1.55;;
22711;SDS011;11523;50.390;8.072;2023-12-22T06:40:47;10.18;;;2.42;;
22711;SDS011;11523;50.390;8.072;2023-12-22T06:43:13;6.50;;;2.00;;
22711;SDS011;11523;50.390;8.072;2023-12-22T06:45:40;10.93;;;2.60;;
22711;SDS011;11523;50.390;8.072;2023-12-22T06:48:06;8.23;;;2.15;;
22711;SDS011;11523;50.390;8.072;2023-12-22T06:50:32;12.40;;;1.95;;
22711;SDS011;11523;50.390;8.072;2023-12-22T06:52:58;6.13;;;1.83;;
22711;SDS011;11523;50.390;8.072;2023-12-22T06:55:24;8.32;;;1.50;;
22711;SDS011;11523;50.390;8.072;2023-12-22T06:57:50;10.32;;;2.50;;
22711;SDS011;11523;50.390;8.072;2023-12-22T07:00:16;6.68;;;1.65;;
22711;SDS011;11523;50.390;8.072;2023-12-22T07:02:42;3.05;;;1.42;;
22711;SDS011;11523;50.390;8.072;2023-12-22T07:07:34;6.97;;;1.77;;
22711;SDS011;11523;50.390;8.072;2023-12-22T07:10:00;12.88;;;2.72;;
22711;SDS011;11523;50.390;8.072;2023-12-22T07:12:26;4.38;;;1.42;;
22711;SDS011;11523;50.390;8.072;2023-12-22T07:14:53;2.17;;;1.27;;
22711;SDS011;11523;50.390;8.072;2023-12-22T07:17:19;7.47;;;2.22;;
22711;SDS011;11523;50.390;8.072;2023-12-22T07:19:45;10.07;;;2.15;;
22711;SDS011;11523;50.390;8.072;2023-12-22T07:22:11;13.15;;;3.03;;
22711;SDS011;11523;50.390;8.072;2023-12-22T07:24:37;12.35;;;2.10;;
22711;SDS011;11523;50.390;8.072;2023-12-22T07:27:03;12.73;;;2.40;;
22711;SDS011;11523;50.390;8.072;2023-12-22T07:29:29;12.70;;;2.40;;
22711;SDS011;11523;50.390;8.072;2023-12-22T07:31:55;6.70;;;1.83;;
22711;SDS011;11523;50.390;8.072;2023-12-22T07:34:20;5.70;;;1.52;;
22711;SDS011;11523;50.390;8.072;2023-12-22T07:36:47;6.63;;;1.40;;
22711;SDS011;11523;50.390;8.072;2023-12-22T07:39:13;8.93;;;2.35;;
22711;SDS011;11523;50.390;8.072;2023-12-22T07:41:47;7.63;;;2.13;;
22711;SDS011;11523;50.390;8.072;2023-12-22T07:44:13;11.25;;;1.80;;
22711;SDS011;11523;50.390;8.072;2023-12-22T07:46:39;6.53;;;1.92;;
22711;SDS011;11523;50.390;8.072;2023-12-22T07:49:05;8.18;;;2.00;;
22711;SDS011;11523;50.390;8.072;2023-12-22T07:51:31;3.03;;;1.35;;
22711;SDS011;11523;50.390;8.072;2023-12-22T07:53:57;4.63;;;1.40;;
22711;SDS011;11523;50.390;8.072;2023-12-22T07:56:23;3.30;;;1.20;;
22711;SDS011;11523;50.390;8.072;2023-12-22T07:58:49;4.95;;;1.77;;
22711;SDS011;11523;50.390;8.072;2023-12-22T08:01:15;6.43;;;1.58;;
22711;SDS011;11523;50.390;8.072;2023-12-22T08:03:41;7.53;;;1.80;;
22711;SDS011;11523;50.390;8.072;2023-12-22T08:06:07;7.28;;;1.90;;
22711;SDS011;11523;50.390;8.072;2023-12-22T08:08:33;5.63;;;1.52;;
22711;SDS011;11523;50.390;8.072;2023-12-22T08:10:59;5.05;;;1.20;;
22711;SDS011;11523;50.390;8.072;2023-12-22T08:13:25;3.20;;;0.82;;
22711;SDS011;11523;50.390;8.072;2023-12-22T08:15:52;6.22;;;1.38;;
22711;SDS011;11523;50.390;8.072;2023-12-22T08:18:18;3.78;;;1.30;;
22711;SDS011;11523;50.390;8.072;2023-12-22T08:20:44;3.80;;;1.20;;
22711;SDS011;11523;50.390;8.072;2023-12-22T08:23:10;3.17;;;0.90;;
22711;SDS011;11523;50.390;8.072;2023-12-22T08:25:37;8.18;;;1.33;;
22711;SDS011;11523;50.390;8.072;2023-12-22T08:28:05;2.08;;;1.00;;
22711;SDS011;11523;50.390;8.072;2023-12-22T08:30:31;2.55;;;1.17;;
22711;SDS011;11523;50.390;8.072;2023-12-22T08:32:57;3.22;;;1.17;;
22711;SDS011;11523;50.390;8.072;2023-12-22T08:35:23;3.70;;;1.30;;
22711;SDS011;11523;50.390;8.072;2023-12-22T08:37:49;2.17;;;1.20;;
22711;SDS011;11523;50.390;8.072;2023-12-22T08:40:15;5.45;;;1.50;;
22711;SDS011;11523;50.390;8.072;2023-12-22T08:42:41;4.00;;;1.45;;
22711;SDS011;11523;50.390;8.072;2023-12-22T08:45:07;7.07;;;1.40;;
22711;SDS011;11523;50.390;8.072;2023-12-22T08:47:33;4.03;;;1.38;;
22711;SDS011;11523;50.390;8.072;2023-12-22T08:49:59;5.65;;;1.95;;
22711;SDS011;11523;50.390;8.072;2023-12-22T08:52:28;10.38;;;1.85;;
22711;SDS011;11523;50.390;8.072;2023-12-22T08:54:54;5.35;;;1.50;;
22711;SDS011;11523;50.390;8.072;2023-12-22T08:57:20;11.07;;;2.65;;
22711;SDS011;11523;50.390;8.072;2023-12-22T08:59:46;9.05;;;2.08;;
22711;SDS011;11523;50.390;8.072;2023-12-22T09:02:12;6.50;;;1.67;;
22711;SDS011;11523;50.390;8.072;2023-12-22T09:04:38;6.00;;;1.77;;
22711;SDS011;11523;50.390;8.072;2023-12-22T09:07:04;9.52;;;1.92;;
22711;SDS011;11523;50.390;8.072;2023-12-22T09:09:30;3.83;;;1.45;;
22711;SDS011;11523;50.390;8.072;2023-12-22T09:11:56;7.05;;;1.38;;
22711;SDS011;11523;50.390;8.072;2023-12-22T09:14:22;9.57;;;2.15;;
22711;SDS011;11523;50.390;8.072;2023-12-22T09:16:48;6.95;;;1.80;;
22711;SDS011;11523;50.390;8.072;2023-12-22T09:19:14;10.13;;;2.17;;
22711;SDS011;11523;50.390;8.072;2023-12-22T09:21:40;7.22;;;1.60;;
22711;SDS011;11523;50.390;8.072;2023-12-22T09:24:06;6.68;;;1.85;;
22711;SDS011;11523;50.390;8.072;2023-12-22T09:26:32;5.82;;;1.60;;
22711;SDS011;11523;50.390;8.072;2023-12-22T09:28:58;5.18;;;1.35;;
22711;SDS011;11523;50.390;8.072;2023-12-22T09:31:24;5.22;;;1.27;;
22711;SDS011;11523;50.390;8.072;2023-12-22T09:33:50;8.90;;;2.33;;
22711;SDS011;11523;50.390;8.072;2023-12-22T09:36:16;5.95;;;1.77;;
22711;SDS011;11523;50.390;8.072;2023-12-22T09:38:42;6.00;;;1.92;;
22711;SDS011;11523;50.390;8.072;2023-12-22T09:41:09;8.80;;;1.75;;
22711;SDS011;11523;50.390;8.072;2023-12-22T09:43:35;8.70;;;2.65;;
22711;SDS011;11523;50.390;8.072;2023-12-22T09:46:02;12.35;;;2.55;;
22711;SDS011;11523;50.390;8.072;2023-12-22T09:48:28;10.57;;;2.72;;
22711;SDS011;11523;50.390;8.072;2023-12-22T09:50:55;12.40;;;2.85;;
22711;SDS011;11523;50.390;8.072;2023-12-22T09:53:21;7.85;;;2.08;;
22711;SDS011;11523;50.390;8.072;2023-12-22T09:55:48;11.98;;;2.85;;
22711;SDS011;11523;50.390;8.072;2023-12-22T09:58:14;7.70;;;2.38;;
22711;SDS011;11523;50.390;8.072;2023-12-22T10:00:43;9.43;;;3.20;;
22711;SDS011;11523;50.390;8.072;2023-12-22T10:03:11;14.48;;;2.90;;
22711;SDS011;11523;50.390;8.072;2023-12-22T10:05:38;10.80;;;3.13;;
22711;SDS011;11523;50.390;8.072;2023-12-22T10:08:05;9.07;;;2.97;;
22711;SDS011;11523;50.390;8.072;2023-12-22T10:10:45;12.13;;;2.70;;
22711;SDS011;11523;50.390;8.072;2023-12-22T10:13:19;13.00;;;3.30;;
22711;SDS011;11523;50.390;8.072;2023-12-22T10:15:45;8.23;;;1.85;;
22711;SDS011;11523;50.390;8.072;2023-12-22T10:18:12;11.27;;;2.50;;
22711;SDS011;11523;50.390;8.072;2023-12-22T10:20:38;9.55;;;2.53;;
22711;SDS011;11523;50.390;8.072;2023-12-22T10:23:04;10.23;;;2.97;;
22711;SDS011;11523;50.390;8.072;2023-12-22T10:25:30;11.18;;;2.97;;
22711;SDS011;11523;50.390;8.072;2023-12-22T10:27:57;13.75;;;2.65;;
22711;SDS011;11523;50.390;8.072;2023-12-22T10:30:24;6.32;;;2.13;;
22711;SDS011;11523;50.390;8.072;2023-12-22T10:32:50;11.48;;;3.22;;
22711;SDS011;11523;50.390;8.072;2023-12-22T10:35:16;10.32;;;2.80;;
22711;SDS011;11523;50.390;8.072;2023-12-22T10:37:43;12.43;;;2.75;;
22711;SDS011;11523;50.390;8.072;2023-12-22T10:40:11;14.63;;;3.22;;
22711;SDS011;11523;50.390;8.072;2023-12-22T10:42:37;13.52;;;3.13;;
22711;SDS011;11523;50.390;8.072;2023-12-22T10:45:04;9.65;;;2.97;;
22711;SDS011;11523;50.390;8.072;2023-12-22T10:47:30;9.98;;;3.20;;
22711;SDS011;11523;50.390;8.072;2023-12-22T10:49:56;15.00;;;3.38;;
22711;SDS011;11523;50.390;8.072;2023-12-22T10:52:22;11.68;;;3.00;;
22711;SDS011;11523;50.390;8.072;2023-12-22T10:54:48;11.90;;;2.90;;
22711;SDS011;11523;50.390;8.072;2023-12-22T10:57:17;4.30;;;1.23;;
22711;SDS011;11523;50.390;8.072;2023-12-22T10:59:44;12.02;;;3.33;;
22711;SDS011;11523;50.390;8.072;2023-12-22T11:02:18;13.63;;;2.40;;
22711;SDS011;11523;50.390;8.072;2023-12-22T11:04:52;14.85;;;3.17;;
22711;SDS011;11523;50.390;8.072;2023-12-22T11:07:23;6.85;;;2.13;;
22711;SDS011;11523;50.390;8.072;2023-12-22T11:09:53;8.50;;;2.55;;
22711;SDS011;11523;50.390;8.072;2023-12-22T11:12:21;6.90;;;2.03;;
22711;SDS011;11523;50.390;8.072;2023-12-22T11:14:47;9.95;;;2.50;;
22711;SDS011;11523;50.390;8.072;2023-12-22T11:17:17;7.82;;;2.75;;
22711;SDS011;11523;50.390;8.072;2023-12-22T11:19:44;5.13;;;1.90;;
22711;SDS011;11523;50.390;8.072;2023-12-22T11:22:10;11.48;;;2.28;;
22711;SDS011;11523;50.390;8.072;2023-12-22T11:24:37;4.15;;;1.35;;
22711;SDS011;11523;50.390;8.072;2023-12-22T11:27:04;5.63;;;1.83;;
22711;SDS011;11523;50.390;8.072;2023-12-22T11:29:31;8.07;;;1.65;;
22711;SDS011;11523;50.390;8.072;2023-12-22T11:31:57;11.30;;;2.33;;
22711;SDS011;11523;50.390;8.072;2023-12-22T11:34:23;13.20;;;2.47;;
22711;SDS011;11523;50.390;8.072;2023-12-22T11:36:49;5.68;;;1.77;;
22711;SDS011;11523;50.390;8.072;2023-12-22T11:39:15;8.93;;;2.70;;
22711;SDS011;11523;50.390;8.072;2023-12-22T11:41:42;5.68;;;1.30;;
22711;SDS011;11523;50.390;8.072;2023-12-22T11:44:09;7.20;;;1.83;;
22711;SDS011;11523;50.390;8.072;2023-12-22T11:46:35;5.68;;;1.83;;
22711;SDS011;11523;50.390;8.072;2023-12-22T11:49:01;3.22;;;1.30;;
22711;SDS011;11523;50.390;8.072;2023-12-22T11:51:31;3.90;;;1.25;;
22711;SDS011;11523;50.390;8.072;2023-12-22T11:53:57;6.65;;;1.80;;
22711;SDS011;11523;50.390;8.072;2023-12-22T11:56:23;3.83;;;1.55;;
22711;SDS011;11523;50.390;8.072;2023-12-22T11:58:51;6.95;;;1.38;;
22711;SDS011;11523;50.390;8.072;2023-12-22T12:01:20;5.88;;;1.63;;
22711;SDS011;11523;50.390;8.072;2023-12-22T12:03:49;5.10;;;1.70;;
22711;SDS011;11523;50.390;8.072;2023-12-22T12:08:49;3.08;;;1.60;;
22711;SDS011;11523;50.390;8.072;2023-12-22T12:11:16;4.53;;;1.63;;
22711;SDS011;11523;50.390;8.072;2023-12-22T12:13:42;1.75;;;0.88;;
22711;SDS011;11523;50.390;8.072;2023-12-22T12:16:10;3.88;;;1.80;;
22711;SDS011;11523;50.390;8.072;2023-12-22T12:18:36;4.28;;;1.65;;
22711;SDS011;11523;50.390;8.072;2023-12-22T12:21:02;4.13;;;1.60;;
22711;SDS011;11523;50.390;8.072;2023-12-22T12:23:28;3.45;;;1.38;;
22711;SDS011;11523;50.390;8.072;2023-12-22T12:25:54;3.63;;;1.67;;
22711;SDS011;11523;50.390;8.072;2023-12-22T12:28:28;2.42;;;1.05;;
22711;SDS011;11523;50.390;8.072;2023-12-22T12:31:02;1.77;;;1.02;;
22711;SDS011;11523;50.390;8.072;2023-12-22T12:33:28;4.65;;;1.63;;
22711;SDS011;11523;50.390;8.072;2023-12-22T12:36:01;2.38;;;1.60;;
22711;SDS011;11523;50.390;8.072;2023-12-22T12:41:14;2.83;;;1.38;;
22711;SDS011;11523;50.390;8.072;2023-12-22T12:43:41;3.42;;;1.48;;
22711;SDS011;11523;50.390;8.072;2023-12-22T12:46:08;1.33;;;0.80;;
22711;SDS011;11523;50.390;8.072;2023-12-22T12:48:34;1.17;;;1.00;;
22711;SDS011;11523;50.390;8.072;2023-12-22T12:51:06;3.58;;;0.93;;
22711;SDS011;11523;50.390;8.072;2023-12-22T12:53:32;3.75;;;1.10;;
22711;SDS011;11523;50.390;8.072;2023-12-22T12:55:59;2.47;;;0.93;;
22711;SDS011;11523;50.390;8.072;2023-12-22T12:58:28;4.88;;;1.33;;
22711;SDS011;11523;50.390;8.072;2023-12-22T13:01:03;1.25;;;0.98;;
22711;SDS011;11523;50.390;8.072;2023-12-22T13:03:29;0.93;;;0.80;;
22711;SDS011;11523;50.390;8.072;2023-12-22T13:06:07;1.58;;;0.70;;
22711;SDS011;11523;50.390;8.072;2023-12-22T13:08:33;1.70;;;1.17;;
22711;SDS011;11523;50.390;8.072;2023-12-22T13:11:00;1.50;;;1.05;;
22711;SDS011;11523;50.390;8.072;2023-12-22T13:13:28;0.85;;;0.75;;
22711;SDS011;11523;50.390;8.072;2023-12-22T13:15:54;0.75;;;0.55;;
22711;SDS011;11523;50.390;8.072;2023-12-22T13:18:21;1.83;;;1.00;;
22711;SDS011;11523;50.390;8.072;2023-12-22T13:20:47;3.20;;;1.13;;
22711;SDS011;11523;50.390;8.072;2023-12-22T13:23:16;0.60;;;0.60;;
22711;SDS011;11523;50.390;8.072;2023-12-22T13:25:42;2.75;;;0.70;;
22711;SDS011;11523;50.390;8.072;2023-12-22T13:28:08;3.17;;;0.80;;
22711;SDS011;11523;50.390;8.072;2023-12-22T13:30:38;2.47;;;0.88;;
22711;SDS011;11523;50.390;8.072;2023-12-22T13:33:09;1.95;;;0.73;;
22711;SDS011;11523;50.390;8.072;2023-12-22T13:35:35;2.08;;;0.70;;
22711;SDS011;11523;50.390;8.072;2023-12-22T13:38:02;1.50;;;1.08;;
22711;SDS011;11523;50.390;8.072;2023-12-22T13:40:28;1.77;;;0.88;;
22711;SDS011;11523;50.390;8.072;2023-12-22T13:42:58;6.28;;;1.10;;
22711;SDS011;11523;50.390;8.072;2023-12-22T13:45:25;2.08;;;1.20;;
22711;SDS011;11523;50.390;8.072;2023-12-22T13:47:52;2.22;;;1.30;;
22711;SDS011;11523;50.390;8.072;2023-12-22T13:50:18;2.97;;;1.30;;
22711;SDS011;11523;50.390;8.072;2023-12-22T13:52:44;1.35;;;1.10;;
22711;SDS011;11523;50.390;8.072;2023-12-22T13:55:11;1.90;;;1.00;;
22711;SDS011;11523;50.390;8.072;2023-12-22T13:57:37;2.35;;;1.30;;
22711;SDS011;11523;50.390;8.072;2023-12-22T14:02:48;3.08;;;1.10;;
22711;SDS011;11523;50.390;8.072;2023-12-22T14:05:14;1.95;;;0.95;;
22711;SDS011;11523;50.390;8.072;2023-12-22T14:07:40;5.18;;;1.30;;
22711;SDS011;11523;50.390;8.072;2023-12-22T14:10:07;3.10;;;1.50;;
22711;SDS011;11523;50.390;8.072;2023-12-22T14:12:40;1.40;;;1.05;;
22711;SDS011;11523;50.390;8.072;2023-12-22T14:15:06;2.67;;;1.10;;
22711;SDS011;11523;50.390;8.072;2023-12-22T14:17:32;1.23;;;0.80;;
22711;SDS011;11523;50.390;8.072;2023-12-22T14:19:58;3.33;;;1.30;;
22711;SDS011;11523;50.390;8.072;2023-12-22T14:22:24;2.30;;;1.02;;
22711;SDS011;11523;50.390;8.072;2023-12-22T14:24:51;4.53;;;1.77;;
22711;SDS011;11523;50.390;8.072;2023-12-22T14:27:17;2.28;;;1.00;;
22711;SDS011;11523;50.390;8.072;2023-12-22T14:29:43;5.68;;;1.17;;
22711;SDS011;11523;50.390;8.072;2023-12-22T14:32:09;1.92;;;1.35;;
22711;SDS011;11523;50.390;8.072;2023-12-22T14:34:39;2.47;;;1.10;;
22711;SDS011;11523;50.390;8.072;2023-12-22T14:37:05;1.40;;;1.10;;
22711;SDS011;11523;50.390;8.072;2023-12-22T14:39:31;5.25;;;1.30;;
22711;SDS011;11523;50.390;8.072;2023-12-22T14:41:58;2.63;;;1.10;;
22711;SDS011;11523;50.390;8.072;2023-12-22T14:44:24;2.60;;;1.23;;
22711;SDS011;11523;50.390;8.072;2023-12-22T14:46:50;3.85;;;1.35;;
22711;SDS011;11523;50.390;8.072;2023-12-22T14:49:16;4.90;;;1.13;;
22711;SDS011;11523;50.390;8.072;2023-12-22T14:51:43;2.03;;;1.42;;